sensor_id;sensor_type;location;lat;lon;timestamp;pressure;altitude;pressure_sealevel;temperature;humidity
29383;BME280;16365;51.598;7.668;2022-10-16T00:01:10;100430.03;;;20.81;49.00
29383;BME280;16365;51.598;7.668;2022-10-16T00:03:37;100432.44;;;20.79;48.96
29383;BME280;16365;51.598;7.668;2022-10-16T00:06:04;100430.03;;;20.77;49.14
29383;BME280;16365;51.598;7.668;2022-10-16T00:08:30;100431.25;;;20.76;48.98
29383;BME280;16365;51.598;7.668;2022-10-16T00:11:01;100438.09;;;20.75;48.84
29383;BME280;16365;51.598;7.668;2022-10-16T00:13:27;100442.13;;;20.74;48.96
29383;BME280;16365;51.598;7.668;2022-10-16T00:15:54;100434.06;;;20.73;49.03
29383;BME280;16365;51.598;7.668;2022-10-16T00:18:21;100431.66;;;20.71;49.10
29383;BME280;16365;51.598;7.668;2022-10-16T00:20:47;100426.03;;;20.71;49.10
29383;BME280;16365;51.598;7.668;2022-10-16T00:23:14;100430.06;;;20.70;48.93
29383;BME280;16365;51.598;7.668;2022-10-16T00:25:40;100442.91;;;20.68;48.96
29383;BME280;16365;51.598;7.668;2022-10-16T00:28:06;100446.16;;;20.66;48.99
29383;BME280;16365;51.598;7.668;2022-10-16T00:30:33;100443.75;;;20.65;49.17
29383;BME280;16365;51.598;7.668;2022-10-16T00:32:59;100438.50;;;20.63;49.18
29383;BME280;16365;51.598;7.668;2022-10-16T00:35:25;100441.72;;;20.62;49.15
29383;BME280;16365;51.598;7.668;2022-10-16T00:37:52;100438.91;;;20.62;49.18
29383;BME280;16365;51.598;7.668;2022-10-16T00:40:18;100434.50;;;20.61;49.18
29383;BME280;16365;51.598;7.668;2022-10-16T00:42:44;100446.56;;;20.58;48.91
29383;BME280;16365;51.598;7.668;2022-10-16T00:45:11;100442.53;;;20.55;49.08
29383;BME280;16365;51.598;7.668;2022-10-16T00:47:42;100438.09;;;20.54;49.08
29383;BME280;16365;51.598;7.668;2022-10-16T00:50:13;100435.31;;;20.50;49.03
29383;BME280;16365;51.598;7.668;2022-10-16T00:52:43;100445.72;;;20.50;49.17
29383;BME280;16365;51.598;7.668;2022-10-16T00:55:10;100443.75;;;20.47;49.09
29383;BME280;16365;51.598;7.668;2022-10-16T00:57:37;100448.94;;;20.45;49.07
29383;BME280;16365;51.598;7.668;2022-10-16T01:00:05;100447.31;;;20.44;49.05
29383;BME280;16365;51.598;7.668;2022-10-16T01:02:32;100444.50;;;20.40;49.11
29383;BME280;16365;51.598;7.668;2022-10-16T01:04:59;100441.69;;;20.40;49.29
29383;BME280;16365;51.598;7.668;2022-10-16T01:10:11;100444.91;;;20.39;49.08
29383;BME280;16365;51.598;7.668;2022-10-16T01:18:29;100446.09;;;20.34;49.23
29383;BME280;16365;51.598;7.668;2022-10-16T01:21:04;100452.94;;;20.33;49.28
29383;BME280;16365;51.598;7.668;2022-10-16T01:28:48;100446.91;;;20.35;49.33
29383;BME280;16365;51.598;7.668;2022-10-16T01:31:18;100453.34;;;20.35;49.40
29383;BME280;16365;51.598;7.668;2022-10-16T01:33:47;100457.78;;;20.36;49.33
29383;BME280;16365;51.598;7.668;2022-10-16T01:36:17;100465.03;;;20.37;49.45
29383;BME280;16365;51.598;7.668;2022-10-16T01:38:46;100471.88;;;20.36;49.47
29383;BME280;16365;51.598;7.668;2022-10-16T01:41:16;100467.03;;;20.37;49.42
29383;BME280;16365;51.598;7.668;2022-10-16T01:43:45;100459.81;;;20.36;49.11
29383;BME280;16365;51.598;7.668;2022-10-16T01:46:14;100462.19;;;20.34;49.25
29383;BME280;16365;51.598;7.668;2022-10-16T01:48:42;100446.53;;;20.33;49.15
29383;BME280;16365;51.598;7.668;2022-10-16T01:51:10;100456.97;;;20.32;49.30
29383;BME280;16365;51.598;7.668;2022-10-16T01:53:37;100451.72;;;20.31;49.30
29383;BME280;16365;51.598;7.668;2022-10-16T01:56:06;100448.53;;;20.28;49.19
29383;BME280;16365;51.598;7.668;2022-10-16T01:58:35;100448.94;;;20.27;49.31
29383;BME280;16365;51.598;7.668;2022-10-16T02:01:04;100440.88;;;20.25;49.31
29383;BME280;16365;51.598;7.668;2022-10-16T02:03:31;100447.31;;;20.22;49.02
29383;BME280;16365;51.598;7.668;2022-10-16T02:05:58;100454.16;;;20.21;49.12
29383;BME280;16365;51.598;7.668;2022-10-16T02:08:25;100452.94;;;20.19;49.25
29383;BME280;16365;51.598;7.668;2022-10-16T02:10:54;100459.78;;;20.18;49.07
29383;BME280;16365;51.598;7.668;2022-10-16T02:13:26;100454.16;;;20.18;49.28
29383;BME280;16365;51.598;7.668;2022-10-16T02:15:53;100446.91;;;20.17;49.26
29383;BME280;16365;51.598;7.668;2022-10-16T02:18:20;100449.72;;;20.17;49.36
29383;BME280;16365;51.598;7.668;2022-10-16T02:23:18;100450.91;;;20.16;49.26
29383;BME280;16365;51.598;7.668;2022-10-16T02:25:46;100450.91;;;20.16;49.17
29383;BME280;16365;51.598;7.668;2022-10-16T02:30:50;100462.97;;;20.13;49.25
29383;BME280;16365;51.598;7.668;2022-10-16T02:33:17;100467.00;;;20.12;49.13
29383;BME280;16365;51.598;7.668;2022-10-16T02:35:46;100464.56;;;20.10;49.06
29383;BME280;16365;51.598;7.668;2022-10-16T02:38:14;100469.41;;;20.10;49.16
29383;BME280;16365;51.598;7.668;2022-10-16T02:40:41;100467.81;;;20.09;49.26
29383;BME280;16365;51.598;7.668;2022-10-16T02:43:08;100469.81;;;20.08;49.30
29383;BME280;16365;51.598;7.668;2022-10-16T02:45:35;100467.81;;;20.09;49.52
29383;BME280;16365;51.598;7.668;2022-10-16T02:48:02;100473.03;;;20.10;49.34
29383;BME280;16365;51.598;7.668;2022-10-16T02:50:28;100471.44;;;20.13;49.52
29383;BME280;16365;51.598;7.668;2022-10-16T02:52:55;100474.25;;;20.13;49.61
29383;BME280;16365;51.598;7.668;2022-10-16T02:55:21;100467.78;;;20.16;49.36
29383;BME280;16365;51.598;7.668;2022-10-16T02:57:47;100463.00;;;20.16;49.51
29383;BME280;16365;51.598;7.668;2022-10-16T03:00:16;100471.03;;;20.18;49.49
29383;BME280;16365;51.598;7.668;2022-10-16T03:02:42;100477.06;;;20.20;49.50
29383;BME280;16365;51.598;7.668;2022-10-16T03:05:09;100467.03;;;20.22;49.52
29383;BME280;16365;51.598;7.668;2022-10-16T03:07:36;100472.25;;;20.24;49.28
29383;BME280;16365;51.598;7.668;2022-10-16T03:10:03;100471.84;;;20.25;49.44
29383;BME280;16365;51.598;7.668;2022-10-16T03:12:29;100464.63;;;20.28;49.61
29383;BME280;16365;51.598;7.668;2022-10-16T03:14:56;100458.19;;;20.31;49.56
29383;BME280;16365;51.598;7.668;2022-10-16T03:17:23;100459.38;;;20.34;49.57
29383;BME280;16365;51.598;7.668;2022-10-16T03:19:50;100468.25;;;20.36;49.34
29383;BME280;16365;51.598;7.668;2022-10-16T03:22:16;100469.44;;;20.38;49.40
29383;BME280;16365;51.598;7.668;2022-10-16T03:24:43;100471.47;;;20.41;49.40
29383;BME280;16365;51.598;7.668;2022-10-16T03:27:09;100479.09;;;20.44;49.57
29383;BME280;16365;51.598;7.668;2022-10-16T03:29:35;100479.13;;;20.48;49.67
29383;BME280;16365;51.598;7.668;2022-10-16T03:32:02;100474.72;;;20.50;49.54
29383;BME280;16365;51.598;7.668;2022-10-16T03:34:29;100483.16;;;20.54;49.41
29383;BME280;16365;51.598;7.668;2022-10-16T03:36:55;100480.34;;;20.58;49.42
29383;BME280;16365;51.598;7.668;2022-10-16T03:39:21;100466.28;;;20.61;49.49
29383;BME280;16365;51.598;7.668;2022-10-16T03:41:48;100457.41;;;20.63;49.49
29383;BME280;16365;51.598;7.668;2022-10-16T03:44:14;100464.28;;;20.65;49.41
29383;BME280;16365;51.598;7.668;2022-10-16T03:46:41;100459.44;;;20.66;49.39
29383;BME280;16365;51.598;7.668;2022-10-16T03:49:07;100455.00;;;20.68;49.36
29383;BME280;16365;51.598;7.668;2022-10-16T03:51:35;100460.25;;;20.70;49.14
29383;BME280;16365;51.598;7.668;2022-10-16T03:54:01;100465.47;;;20.71;49.51
29383;BME280;16365;51.598;7.668;2022-10-16T03:56:27;100461.44;;;20.72;49.29
29383;BME280;16365;51.598;7.668;2022-10-16T03:58:54;100462.25;;;20.73;49.29
29383;BME280;16365;51.598;7.668;2022-10-16T04:01:20;100472.28;;;20.74;49.26
29383;BME280;16365;51.598;7.668;2022-10-16T04:03:46;100470.69;;;20.73;49.37
29383;BME280;16365;51.598;7.668;2022-10-16T04:06:12;100478.34;;;20.72;49.16
29383;BME280;16365;51.598;7.668;2022-10-16T04:08:39;100479.56;;;20.71;48.95
29383;BME280;16365;51.598;7.668;2022-10-16T04:11:08;100486.41;;;20.70;49.42
29383;BME280;16365;51.598;7.668;2022-10-16T04:13:35;100496.03;;;20.69;49.04
29383;BME280;16365;51.598;7.668;2022-10-16T04:16:01;100485.19;;;20.68;48.84
29383;BME280;16365;51.598;7.668;2022-10-16T04:18:28;100473.91;;;20.64;48.87
29383;BME280;16365;51.598;7.668;2022-10-16T04:20:55;100479.94;;;20.63;48.77
29383;BME280;16365;51.598;7.668;2022-10-16T04:23:21;100492.00;;;20.60;48.86
29383;BME280;16365;51.598;7.668;2022-10-16T04:25:48;100488.41;;;20.56;48.80
29383;BME280;16365;51.598;7.668;2022-10-16T04:28:15;100497.25;;;20.54;48.89
29383;BME280;16365;51.598;7.668;2022-10-16T04:30:41;100491.22;;;20.52;48.98
29383;BME280;16365;51.598;7.668;2022-10-16T04:33:08;100514.53;;;20.49;48.85
29383;BME280;16365;51.598;7.668;2022-10-16T04:35:35;100515.75;;;20.48;48.86
29383;BME280;16365;51.598;7.668;2022-10-16T04:38:01;100514.53;;;20.45;49.04
29383;BME280;16365;51.598;7.668;2022-10-16T04:40:27;100518.53;;;20.44;48.78
29383;BME280;16365;51.598;7.668;2022-10-16T04:42:54;100515.72;;;20.41;48.92
29383;BME280;16365;51.598;7.668;2022-10-16T04:45:20;100513.28;;;20.39;48.98
29383;BME280;16365;51.598;7.668;2022-10-16T04:47:46;100520.13;;;20.38;48.89
29383;BME280;16365;51.598;7.668;2022-10-16T04:50:13;100524.56;;;20.36;48.79
29383;BME280;16365;51.598;7.668;2022-10-16T04:52:39;100519.72;;;20.33;48.95
29383;BME280;16365;51.598;7.668;2022-10-16T04:55:06;100529.75;;;20.30;48.97
29383;BME280;16365;51.598;7.668;2022-10-16T04:57:32;100529.78;;;20.26;48.93
29383;BME280;16365;51.598;7.668;2022-10-16T04:59:59;100536.59;;;20.25;48.93
29383;BME280;16365;51.598;7.668;2022-10-16T05:02:25;100538.22;;;20.23;48.78
29383;BME280;16365;51.598;7.668;2022-10-16T05:04:52;100544.25;;;20.21;48.88
29383;BME280;16365;51.598;7.668;2022-10-16T05:07:18;100543.00;;;20.19;48.86
29383;BME280;16365;51.598;7.668;2022-10-16T05:09:44;100532.53;;;20.16;48.91
29383;BME280;16365;51.598;7.668;2022-10-16T05:12:11;100534.56;;;20.15;49.17
29383;BME280;16365;51.598;7.668;2022-10-16T05:14:37;100541.38;;;20.14;49.00
29383;BME280;16365;51.598;7.668;2022-10-16T05:17:03;100545.41;;;20.13;49.05
29383;BME280;16365;51.598;7.668;2022-10-16T05:19:30;100538.19;;;20.12;49.10
29383;BME280;16365;51.598;7.668;2022-10-16T05:21:56;100545.00;;;20.11;49.14
29383;BME280;16365;51.598;7.668;2022-10-16T05:24:23;100550.22;;;20.09;49.18
29383;BME280;16365;51.598;7.668;2022-10-16T05:26:49;100549.41;;;20.09;49.13
29383;BME280;16365;51.598;7.668;2022-10-16T05:29:15;100565.09;;;20.10;49.06
29383;BME280;16365;51.598;7.668;2022-10-16T05:31:42;100569.94;;;20.09;49.22
29383;BME280;16365;51.598;7.668;2022-10-16T05:34:08;100567.50;;;20.11;49.09
29383;BME280;16365;51.598;7.668;2022-10-16T05:36:35;100567.50;;;20.11;49.32
29383;BME280;16365;51.598;7.668;2022-10-16T05:39:02;100567.94;;;20.13;49.35
29383;BME280;16365;51.598;7.668;2022-10-16T05:41:29;100575.97;;;20.15;49.41
29383;BME280;16365;51.598;7.668;2022-10-16T05:43:55;100572.78;;;20.16;49.19
29383;BME280;16365;51.598;7.668;2022-10-16T05:46:21;100580.81;;;20.18;49.06
29383;BME280;16365;51.598;7.668;2022-10-16T05:48:48;100575.19;;;20.18;49.19
29383;BME280;16365;51.598;7.668;2022-10-16T05:51:14;100574.78;;;20.19;49.29
29383;BME280;16365;51.598;7.668;2022-10-16T05:53:41;100592.88;;;20.18;49.19
29383;BME280;16365;51.598;7.668;2022-10-16T05:56:09;100590.06;;;20.18;49.17
29383;BME280;16365;51.598;7.668;2022-10-16T05:58:36;100587.66;;;20.17;49.23
29383;BME280;16365;51.598;7.668;2022-10-16T06:01:04;100590.06;;;20.18;48.99
29383;BME280;16365;51.598;7.668;2022-10-16T06:03:31;100591.28;;;20.17;49.21
29383;BME280;16365;51.598;7.668;2022-10-16T06:05:57;100591.66;;;20.16;49.14
29383;BME280;16365;51.598;7.668;2022-10-16T06:08:24;100591.66;;;20.16;49.00
29383;BME280;16365;51.598;7.668;2022-10-16T06:11:00;100595.31;;;20.16;49.17
29383;BME280;16365;51.598;7.668;2022-10-16T06:13:27;100602.91;;;20.16;49.10
29383;BME280;16365;51.598;7.668;2022-10-16T06:15:56;100606.56;;;20.16;49.06
29383;BME280;16365;51.598;7.668;2022-10-16T06:18:22;100612.19;;;20.16;49.17
29383;BME280;16365;51.598;7.668;2022-10-16T06:20:49;100610.56;;;20.15;49.20
29383;BME280;16365;51.598;7.668;2022-10-16T06:23:16;100626.25;;;20.16;49.12
29383;BME280;16365;51.598;7.668;2022-10-16T06:25:42;100619.44;;;20.17;49.08
29383;BME280;16365;51.598;7.668;2022-10-16T06:28:11;100624.25;;;20.17;49.23
29383;BME280;16365;51.598;7.668;2022-10-16T06:30:37;100628.69;;;20.18;49.04
29383;BME280;16365;51.598;7.668;2022-10-16T06:33:03;100645.97;;;20.20;49.41
29383;BME280;16365;51.598;7.668;2022-10-16T06:35:30;100641.94;;;20.21;49.25
29383;BME280;16365;51.598;7.668;2022-10-16T06:37:58;100641.56;;;20.22;49.22
29383;BME280;16365;51.598;7.668;2022-10-16T06:40:24;100641.16;;;20.24;49.37
29383;BME280;16365;51.598;7.668;2022-10-16T06:42:51;100645.22;;;20.26;49.28
29383;BME280;16365;51.598;7.668;2022-10-16T06:45:18;100648.03;;;20.30;49.29
29383;BME280;16365;51.598;7.668;2022-10-16T06:47:44;100658.91;;;20.32;49.17
29383;BME280;16365;51.598;7.668;2022-10-16T06:50:10;100656.91;;;20.32;49.29
29383;BME280;16365;51.598;7.668;2022-10-16T06:52:37;100664.13;;;20.33;49.11
29383;BME280;16365;51.598;7.668;2022-10-16T06:55:04;100663.72;;;20.35;49.22
29383;BME280;16365;51.598;7.668;2022-10-16T06:57:31;100679.03;;;20.37;49.09
29383;BME280;16365;51.598;7.668;2022-10-16T06:59:58;100683.47;;;20.38;49.22
29383;BME280;16365;51.598;7.668;2022-10-16T07:02:24;100687.50;;;20.41;49.29
29383;BME280;16365;51.598;7.668;2022-10-16T07:04:51;100683.06;;;20.43;49.21
29383;BME280;16365;51.598;7.668;2022-10-16T07:07:17;100684.75;;;20.48;49.35
29383;BME280;16365;51.598;7.668;2022-10-16T07:09:44;100698.03;;;20.51;49.47
29383;BME280;16365;51.598;7.668;2022-10-16T07:12:10;100689.59;;;20.54;49.42
29383;BME280;16365;51.598;7.668;2022-10-16T07:14:36;100690.41;;;20.59;49.26
29383;BME280;16365;51.598;7.668;2022-10-16T07:17:03;100699.69;;;20.63;49.31
29383;BME280;16365;51.598;7.668;2022-10-16T07:19:29;100705.34;;;20.66;49.34
29383;BME280;16365;51.598;7.668;2022-10-16T07:21:59;100711.78;;;20.70;49.54
29383;BME280;16365;51.598;7.668;2022-10-16T07:24:25;100710.97;;;20.73;49.41
29383;BME280;16365;51.598;7.668;2022-10-16T07:26:52;100719.84;;;20.79;49.69
29383;BME280;16365;51.598;7.668;2022-10-16T07:29:19;100731.97;;;20.87;49.66
29383;BME280;16365;51.598;7.668;2022-10-16T07:31:46;100729.56;;;20.92;49.69
29383;BME280;16365;51.598;7.668;2022-10-16T07:34:13;100731.63;;;20.99;49.73
29383;BME280;16365;51.598;7.668;2022-10-16T07:36:40;100740.06;;;21.06;49.64
29383;BME280;16365;51.598;7.668;2022-10-16T07:39:08;100738.47;;;21.12;49.57
29383;BME280;16365;51.598;7.668;2022-10-16T07:41:34;100739.28;;;21.16;49.54
29383;BME280;16365;51.598;7.668;2022-10-16T07:44:03;100741.72;;;21.18;49.24
29383;BME280;16365;51.598;7.668;2022-10-16T07:46:29;100750.56;;;21.20;49.15
29383;BME280;16365;51.598;7.668;2022-10-16T07:48:56;100749.78;;;21.19;49.05
29383;BME280;16365;51.598;7.668;2022-10-16T07:51:23;100746.53;;;21.21;48.91
29383;BME280;16365;51.598;7.668;2022-10-16T07:53:50;100753.00;;;21.21;48.89
29383;BME280;16365;51.598;7.668;2022-10-16T07:56:17;100753.41;;;21.20;49.16
29383;BME280;16365;51.598;7.668;2022-10-16T07:58:44;100754.59;;;21.19;49.21
29383;BME280;16365;51.598;7.668;2022-10-16T08:01:14;100761.84;;;21.20;49.01
29383;BME280;16365;51.598;7.668;2022-10-16T08:03:41;100767.09;;;21.21;49.14
29383;BME280;16365;51.598;7.668;2022-10-16T08:06:08;100768.69;;;21.22;49.20
29383;BME280;16365;51.598;7.668;2022-10-16T08:08:34;100772.34;;;21.23;49.16
29383;BME280;16365;51.598;7.668;2022-10-16T08:11:01;100774.75;;;21.24;49.13
29383;BME280;16365;51.598;7.668;2022-10-16T08:13:30;100777.97;;;21.26;49.21
29383;BME280;16365;51.598;7.668;2022-10-16T08:15:56;100783.22;;;21.28;49.20
29383;BME280;16365;51.598;7.668;2022-10-16T08:18:22;100789.69;;;21.32;49.25
29383;BME280;16365;51.598;7.668;2022-10-16T08:20:54;100796.16;;;21.36;49.46
29383;BME280;16365;51.598;7.668;2022-10-16T08:23:21;100797.41;;;21.42;49.20
29383;BME280;16365;51.598;7.668;2022-10-16T08:25:47;100803.03;;;21.49;49.17
29383;BME280;16365;51.598;7.668;2022-10-16T08:28:13;100801.44;;;21.55;49.57
29383;BME280;16365;51.598;7.668;2022-10-16T08:30:40;100810.72;;;21.63;49.54
29383;BME280;16365;51.598;7.668;2022-10-16T08:33:06;100807.88;;;21.70;49.55
29383;BME280;16365;51.598;7.668;2022-10-16T08:35:33;100813.16;;;21.79;49.51
29383;BME280;16365;51.598;7.668;2022-10-16T08:37:59;100812.75;;;21.88;49.52
29383;BME280;16365;51.598;7.668;2022-10-16T08:40:26;100823.22;;;21.94;49.67
29383;BME280;16365;51.598;7.668;2022-10-16T08:42:58;100818.78;;;22.04;49.52
29383;BME280;16365;51.598;7.668;2022-10-16T08:45:32;100817.63;;;22.12;49.53
29383;BME280;16365;51.598;7.668;2022-10-16T08:50:42;100819.22;;;22.27;49.26
29383;BME280;16365;51.598;7.668;2022-10-16T08:53:11;100836.56;;;22.37;49.35
29383;BME280;16365;51.598;7.668;2022-10-16T08:55:41;100844.63;;;22.45;49.46
29383;BME280;16365;51.598;7.668;2022-10-16T08:58:12;100840.97;;;22.52;49.32
29383;BME280;16365;51.598;7.668;2022-10-16T09:00:39;100855.09;;;22.59;49.11
29383;BME280;16365;51.598;7.668;2022-10-16T09:03:11;100848.19;;;22.67;49.03
29383;BME280;16365;51.598;7.668;2022-10-16T09:10:57;100861.06;;;22.86;48.87
29383;BME280;16365;51.598;7.668;2022-10-16T09:13:28;100859.88;;;22.91;48.78
29383;BME280;16365;51.598;7.668;2022-10-16T09:16:10;100864.28;;;22.99;48.80
29383;BME280;16365;51.598;7.668;2022-10-16T09:18:52;100871.53;;;23.03;48.76
29383;BME280;16365;51.598;7.668;2022-10-16T09:23:53;100870.31;;;23.12;48.64
29383;BME280;16365;51.598;7.668;2022-10-16T09:26:20;100881.19;;;23.17;48.62
29383;BME280;16365;51.598;7.668;2022-10-16T09:28:49;100875.50;;;23.20;48.42
29383;BME280;16365;51.598;7.668;2022-10-16T09:31:18;100873.88;;;23.23;48.22
29383;BME280;16365;51.598;7.668;2022-10-16T09:33:47;100880.72;;;23.29;48.19
29383;BME280;16365;51.598;7.668;2022-10-16T09:36:14;100878.69;;;23.33;48.25
29383;BME280;16365;51.598;7.668;2022-10-16T09:38:41;100879.06;;;23.39;48.42
29383;BME280;16365;51.598;7.668;2022-10-16T09:41:21;100878.63;;;23.44;48.31
29383;BME280;16365;51.598;7.668;2022-10-16T09:46:30;100885.44;;;23.53;47.90
29383;BME280;16365;51.598;7.668;2022-10-16T09:48:57;100884.22;;;23.58;48.10
29383;BME280;16365;51.598;7.668;2022-10-16T09:53:54;100886.63;;;23.67;47.79
29383;BME280;16365;51.598;7.668;2022-10-16T09:56:25;100895.91;;;23.71;47.39
29383;BME280;16365;51.598;7.668;2022-10-16T09:58:52;100893.06;;;23.74;47.51
29383;BME280;16365;51.598;7.668;2022-10-16T10:01:19;100895.84;;;23.78;47.23
29383;BME280;16365;51.598;7.668;2022-10-16T10:03:46;100901.06;;;23.83;47.35
29383;BME280;16365;51.598;7.668;2022-10-16T10:06:21;100902.28;;;23.89;47.44
29383;BME280;16365;51.598;7.668;2022-10-16T10:08:58;100891.31;;;23.95;47.40
29383;BME280;16365;51.598;7.668;2022-10-16T10:14:05;100894.47;;;24.04;47.39
29383;BME280;16365;51.598;7.668;2022-10-16T10:16:31;100904.16;;;24.06;47.10
29383;BME280;16365;51.598;7.668;2022-10-16T10:19:00;100908.19;;;24.09;47.02
29383;BME280;16365;51.598;7.668;2022-10-16T10:21:27;100907.75;;;24.10;46.82
29383;BME280;16365;51.598;7.668;2022-10-16T10:23:56;100915.03;;;24.11;46.50
29383;BME280;16365;51.598;7.668;2022-10-16T10:26:27;100913.00;;;24.16;46.74
29383;BME280;16365;51.598;7.668;2022-10-16T10:31:52;100910.13;;;24.23;46.75
29383;BME280;16365;51.598;7.668;2022-10-16T10:36:54;100910.81;;;24.38;46.87
29383;BME280;16365;51.598;7.668;2022-10-16T10:39:25;100920.06;;;24.45;46.94
29383;BME280;16365;51.598;7.668;2022-10-16T10:46:57;100916.66;;;24.61;46.05
29383;BME280;16365;51.598;7.668;2022-10-16T10:49:31;100920.72;;;24.64;46.01
29383;BME280;16365;51.598;7.668;2022-10-16T10:54:50;100914.56;;;24.69;46.32
29383;BME280;16365;51.598;7.668;2022-10-16T11:02:37;100912.53;;;24.73;45.43
29383;BME280;16365;51.598;7.668;2022-10-16T11:05:20;100922.63;;;24.74;45.57
29383;BME280;16365;51.598;7.668;2022-10-16T11:07:50;100914.53;;;24.76;45.73
29383;BME280;16365;51.598;7.668;2022-10-16T11:10:20;100912.06;;;24.78;45.70
29383;BME280;16365;51.598;7.668;2022-10-16T11:12:52;100912.84;;;24.82;45.53
29383;BME280;16365;51.598;7.668;2022-10-16T11:15:23;100920.06;;;24.86;45.75
29383;BME280;16365;51.598;7.668;2022-10-16T11:21:13;100924.84;;;24.93;45.59
29383;BME280;16365;51.598;7.668;2022-10-16T11:26:17;100923.16;;;24.99;45.29
29383;BME280;16365;51.598;7.668;2022-10-16T11:28:49;100920.28;;;25.03;45.48
29383;BME280;16365;51.598;7.668;2022-10-16T11:31:34;100915.41;;;25.07;45.29
29383;BME280;16365;51.598;7.668;2022-10-16T11:34:09;100921.44;;;25.12;45.54
29383;BME280;16365;51.598;7.668;2022-10-16T11:36:43;100933.53;;;25.17;45.37
29383;BME280;16365;51.598;7.668;2022-10-16T11:41:50;100927.38;;;25.25;45.51
29383;BME280;16365;51.598;7.668;2022-10-16T11:46:46;100933.72;;;25.36;44.83
29383;BME280;16365;51.598;7.668;2022-10-16T11:49:34;100928.38;;;25.42;44.54
29383;BME280;16365;51.598;7.668;2022-10-16T11:52:23;100929.94;;;25.47;45.13
29383;BME280;16365;51.598;7.668;2022-10-16T11:54:56;100926.69;;;25.48;44.53
29383;BME280;16365;51.598;7.668;2022-10-16T11:57:26;100928.28;;;25.49;44.52
29383;BME280;16365;51.598;7.668;2022-10-16T12:05:15;100931.06;;;25.53;44.68
29383;BME280;16365;51.598;7.668;2022-10-16T12:10:28;100932.38;;;25.48;44.22
29383;BME280;16365;51.598;7.668;2022-10-16T12:12:55;100939.66;;;25.49;44.04
29383;BME280;16365;51.598;7.668;2022-10-16T12:15:24;100946.56;;;25.48;44.52
29383;BME280;16365;51.598;7.668;2022-10-16T12:18:23;100949.41;;;25.48;44.69
29383;BME280;16365;51.598;7.668;2022-10-16T12:20:57;100948.56;;;25.48;44.28
29383;BME280;16365;51.598;7.668;2022-10-16T12:23:26;100942.53;;;25.46;44.39
29383;BME280;16365;51.598;7.668;2022-10-16T12:25:53;100946.59;;;25.45;44.49
29383;BME280;16365;51.598;7.668;2022-10-16T12:28:21;100942.53;;;25.46;44.13
29383;BME280;16365;51.598;7.668;2022-10-16T12:30:52;100944.16;;;25.43;43.97
29383;BME280;16365;51.598;7.668;2022-10-16T12:33:27;100947.00;;;25.43;43.75
29383;BME280;16365;51.598;7.668;2022-10-16T12:35:54;100945.78;;;25.44;44.07
29383;BME280;16365;51.598;7.668;2022-10-16T12:38:22;100948.63;;;25.44;43.96
29383;BME280;16365;51.598;7.668;2022-10-16T12:41:09;100951.03;;;25.46;43.42
29383;BME280;16365;51.598;7.668;2022-10-16T12:43:38;100942.09;;;25.47;43.86
29383;BME280;16365;51.598;7.668;2022-10-16T12:46:20;100947.72;;;25.51;44.19
29383;BME280;16365;51.598;7.668;2022-10-16T12:48:47;100949.72;;;25.54;44.11
29383;BME280;16365;51.598;7.668;2022-10-16T12:54:01;100962.19;;;25.63;44.20
29383;BME280;16365;51.598;7.668;2022-10-16T12:56:32;100964.09;;;25.70;43.85
29383;BME280;16365;51.598;7.668;2022-10-16T12:59:16;100957.53;;;25.77;44.13
29383;BME280;16365;51.598;7.668;2022-10-16T13:04:35;100959.03;;;25.88;44.22
29383;BME280;16365;51.598;7.668;2022-10-16T13:12:17;100963.31;;;26.00;43.88
29383;BME280;16365;51.598;7.668;2022-10-16T13:17:22;100968.13;;;26.03;43.55
29383;BME280;16365;51.598;7.668;2022-10-16T13:22:24;100970.59;;;26.01;42.47
29383;BME280;16365;51.598;7.668;2022-10-16T13:27:43;100964.22;;;25.94;43.06
29383;BME280;16365;51.598;7.668;2022-10-16T13:30:23;100963.47;;;25.89;43.12
29383;BME280;16365;51.598;7.668;2022-10-16T13:33:00;100964.31;;;25.86;42.28
29383;BME280;16365;51.598;7.668;2022-10-16T13:35:31;100972.03;;;25.86;43.19
29383;BME280;16365;51.598;7.668;2022-10-16T13:40:36;100977.72;;;25.86;42.94
29383;BME280;16365;51.598;7.668;2022-10-16T13:43:02;100973.66;;;25.87;43.21
29383;BME280;16365;51.598;7.668;2022-10-16T13:45:29;100975.25;;;25.88;43.83
29383;BME280;16365;51.598;7.668;2022-10-16T13:48:03;100974.81;;;25.89;43.49
29383;BME280;16365;51.598;7.668;2022-10-16T13:50:30;100976.44;;;25.91;43.56
29383;BME280;16365;51.598;7.668;2022-10-16T13:53:04;100983.72;;;25.92;43.58
29383;BME280;16365;51.598;7.668;2022-10-16T13:55:30;100996.72;;;25.93;43.25
29383;BME280;16365;51.598;7.668;2022-10-16T13:58:13;100996.72;;;25.93;43.21
29383;BME280;16365;51.598;7.668;2022-10-16T14:00:40;101001.59;;;25.92;43.02
29383;BME280;16365;51.598;7.668;2022-10-16T14:03:12;100997.13;;;25.91;42.37
29383;BME280;16365;51.598;7.668;2022-10-16T14:05:50;100998.00;;;25.88;42.73
29383;BME280;16365;51.598;7.668;2022-10-16T14:08:17;100999.63;;;25.85;42.71
29383;BME280;16365;51.598;7.668;2022-10-16T14:10:47;101002.94;;;25.80;43.01
29383;BME280;16365;51.598;7.668;2022-10-16T14:13:17;100995.69;;;25.76;42.70
29383;BME280;16365;51.598;7.668;2022-10-16T14:15:47;100988.88;;;25.70;42.25
29383;BME280;16365;51.598;7.668;2022-10-16T14:18:18;100975.94;;;25.65;42.36
29383;BME280;16365;51.598;7.668;2022-10-16T14:20:46;100983.69;;;25.61;42.74
29383;BME280;16365;51.598;7.668;2022-10-16T14:23:22;100975.66;;;25.56;42.47
29383;BME280;16365;51.598;7.668;2022-10-16T14:25:49;100982.59;;;25.51;42.68
29383;BME280;16365;51.598;7.668;2022-10-16T14:28:17;100991.97;;;25.48;42.13
29383;BME280;16365;51.598;7.668;2022-10-16T14:30:54;100987.56;;;25.44;42.14
29383;BME280;16365;51.598;7.668;2022-10-16T14:35:57;100986.75;;;25.43;42.46